createdAt,value
2018-05-27T00:02:15.988Z,5.47
2018-05-27T00:04:43.485Z,5.47
2018-05-27T00:07:10.991Z,5.50
2018-05-27T00:09:38.583Z,6.10
2018-05-27T00:12:06.069Z,5.10
2018-05-27T00:14:33.593Z,5.17
2018-05-27T00:17:01.316Z,5.40
2018-05-27T00:19:29.010Z,5.33
2018-05-27T00:21:56.681Z,6.67
2018-05-27T00:24:24.281Z,8.07
2018-05-27T00:26:51.941Z,7.83
2018-05-27T00:29:19.706Z,7.40
2018-05-27T00:31:47.351Z,7.90
2018-05-27T00:34:14.964Z,6.77
2018-05-27T00:36:42.648Z,7.87
2018-05-27T00:39:10.331Z,7.70
2018-05-27T00:41:38.105Z,7.33
2018-05-27T00:44:05.880Z,6.83
2018-05-27T00:46:33.526Z,6.10
2018-05-27T00:49:01.103Z,6.27
2018-05-27T00:51:28.664Z,6.93
2018-05-27T00:54:00.111Z,6.50
2018-05-27T00:56:27.692Z,5.90
2018-05-27T00:58:55.280Z,6.00
2018-05-27T01:01:22.832Z,5.63
2018-05-27T01:03:50.401Z,6.37
2018-05-27T01:06:17.974Z,6.40
2018-05-27T01:08:45.612Z,5.47
2018-05-27T01:11:13.130Z,6.13
2018-05-27T01:13:40.817Z,6.37
2018-05-27T01:16:08.377Z,6.57
2018-05-27T01:18:36.002Z,6.17
2018-05-27T01:21:03.516Z,6.20
2018-05-27T01:23:31.081Z,5.73
2018-05-27T01:25:58.703Z,6.00
2018-05-27T01:28:26.487Z,5.40
2018-05-27T01:30:54.117Z,6.03
2018-05-27T01:33:21.759Z,6.57
2018-05-27T01:35:49.369Z,7.70
2018-05-27T01:38:16.924Z,6.27
2018-05-27T01:40:44.475Z,7.43
2018-05-27T01:43:12.010Z,6.80
2018-05-27T01:45:39.636Z,6.87
2018-05-27T01:48:07.199Z,7.37
2018-05-27T01:50:34.713Z,6.50
2018-05-27T01:53:02.258Z,6.80
2018-05-27T01:55:29.793Z,7.33
2018-05-27T01:57:57.340Z,7.90
2018-05-27T02:00:24.898Z,7.43
2018-05-27T02:02:52.529Z,7.40
2018-05-27T02:05:20.166Z,7.10
2018-05-27T02:07:47.743Z,6.90
2018-05-27T02:10:15.366Z,8.00
2018-05-27T02:12:42.980Z,7.47
2018-05-27T02:15:10.618Z,7.90
2018-05-27T02:17:38.205Z,8.10
2018-05-27T02:20:06.031Z,7.20
2018-05-27T02:22:33.604Z,8.00
2018-05-27T02:25:01.265Z,7.63
2018-05-27T02:27:28.821Z,7.60
2018-05-27T02:29:56.365Z,7.47
2018-05-27T02:32:24.009Z,7.77
2018-05-27T02:34:51.584Z,7.50
2018-05-27T02:37:19.146Z,8.63
2018-05-27T02:39:46.676Z,8.47
2018-05-27T02:42:14.178Z,7.70
2018-05-27T02:44:41.702Z,8.27
2018-05-27T02:47:09.208Z,8.40
2018-05-27T02:49:36.850Z,8.53
2018-05-27T02:52:04.341Z,8.50
2018-05-27T02:54:31.834Z,7.57
2018-05-27T02:56:59.341Z,7.57
2018-05-27T02:59:26.889Z,7.37
2018-05-27T03:01:54.397Z,7.37
2018-05-27T03:04:21.934Z,7.40
2018-05-27T03:06:49.445Z,7.07
2018-05-27T03:09:17.010Z,7.13
2018-05-27T03:11:44.504Z,7.70
2018-05-27T03:14:12.012Z,7.73
2018-05-27T03:16:39.516Z,7.87
2018-05-27T03:19:07.021Z,7.33
2018-05-27T03:21:35.089Z,7.43
2018-05-27T03:24:02.625Z,8.10
2018-05-27T03:26:30.131Z,7.70
2018-05-27T03:28:57.644Z,7.97
2018-05-27T03:31:25.186Z,7.27
2018-05-27T03:33:52.676Z,7.83
2018-05-27T03:36:20.195Z,8.07
2018-05-27T03:38:47.711Z,8.57
2018-05-27T03:41:15.205Z,7.90
2018-05-27T03:43:42.684Z,7.67
2018-05-27T03:46:10.219Z,7.70
2018-05-27T03:48:37.728Z,8.30
2018-05-27T03:51:05.242Z,7.73
2018-05-27T03:53:32.790Z,7.70
2018-05-27T03:56:00.285Z,7.33
2018-05-27T03:58:27.786Z,7.73
2018-05-27T04:00:55.281Z,7.80
2018-05-27T04:03:22.776Z,7.67
2018-05-27T04:05:56.092Z,7.83
2018-05-27T04:08:29.344Z,7.90
2018-05-27T04:10:56.805Z,7.30
2018-05-27T04:13:24.309Z,7.50
2018-05-27T04:15:51.819Z,7.73
2018-05-27T04:18:20.014Z,8.23
2018-05-27T04:20:47.520Z,7.83
2018-05-27T04:23:15.349Z,7.27
2018-05-27T04:25:42.894Z,7.97
2018-05-27T04:28:10.494Z,8.00
2018-05-27T04:30:37.980Z,8.20
2018-05-27T04:33:05.484Z,7.33
2018-05-27T04:35:32.985Z,7.93
2018-05-27T04:38:00.528Z,8.20
2018-05-27T04:40:28.093Z,8.73
2018-05-27T04:42:55.590Z,7.93
2018-05-27T04:45:23.087Z,7.73
2018-05-27T04:47:50.592Z,7.83
2018-05-27T04:50:18.108Z,8.00
2018-05-27T04:52:45.600Z,7.70
2018-05-27T04:55:13.095Z,7.50
2018-05-27T04:57:40.637Z,8.67
2018-05-27T05:00:08.157Z,7.53
2018-05-27T05:02:35.669Z,8.20
2018-05-27T05:05:03.181Z,7.87
2018-05-27T05:07:30.693Z,8.17
2018-05-27T05:09:58.210Z,8.13
2018-05-27T05:12:25.741Z,7.50
2018-05-27T05:14:54.258Z,8.00
2018-05-27T05:17:21.769Z,8.07
2018-05-27T05:19:49.282Z,8.47
2018-05-27T05:22:16.836Z,7.20
2018-05-27T05:24:44.689Z,7.97
2018-05-27T05:27:12.191Z,7.90
2018-05-27T05:29:40.070Z,8.13
2018-05-27T05:32:07.548Z,7.90
2018-05-27T05:34:35.084Z,7.63
2018-05-27T05:37:02.742Z,7.50
2018-05-27T05:39:30.396Z,8.20
2018-05-27T05:41:58.048Z,8.07
2018-05-27T05:44:25.565Z,7.77
2018-05-27T05:46:53.060Z,8.00
2018-05-27T05:49:20.698Z,8.90
2018-05-27T05:51:48.220Z,8.73
2018-05-27T05:54:15.740Z,7.87
2018-05-27T05:56:43.261Z,7.80
2018-05-27T05:59:10.760Z,7.70
2018-05-27T06:01:38.307Z,8.03
2018-05-27T06:04:05.817Z,8.07
2018-05-27T06:06:33.319Z,7.60
2018-05-27T06:09:00.838Z,7.70
2018-05-27T06:11:28.329Z,8.07
2018-05-27T06:13:55.822Z,8.30
2018-05-27T06:16:23.361Z,7.83
2018-05-27T06:18:50.966Z,7.03
2018-05-27T06:21:18.482Z,7.17
2018-05-27T06:23:45.928Z,6.77
2018-05-27T06:26:13.914Z,7.50
2018-05-27T06:28:41.601Z,7.50
2018-05-27T06:31:09.156Z,8.00
2018-05-27T06:33:36.879Z,8.83
2018-05-27T06:36:04.459Z,8.97
2018-05-27T06:38:32.060Z,7.60
2018-05-27T06:40:59.601Z,7.57
2018-05-27T06:43:27.099Z,6.80
2018-05-27T06:45:54.645Z,7.37
2018-05-27T06:48:22.157Z,8.23
2018-05-27T06:50:49.716Z,8.37
2018-05-27T06:53:17.242Z,8.33
2018-05-27T06:55:44.752Z,7.87
2018-05-27T06:58:12.246Z,7.97
2018-05-27T07:00:39.746Z,8.93
2018-05-27T07:03:07.243Z,8.80
2018-05-27T07:05:35.113Z,8.60
2018-05-27T07:08:02.656Z,8.77
2018-05-27T07:10:30.172Z,8.90
2018-05-27T07:12:57.690Z,9.43
2018-05-27T07:15:25.193Z,8.97
2018-05-27T07:17:52.724Z,9.40
2018-05-27T07:20:20.233Z,9.43
2018-05-27T07:22:47.741Z,9.50
2018-05-27T07:25:15.192Z,9.53
2018-05-27T07:27:43.045Z,8.57
2018-05-27T07:30:10.668Z,8.77
2018-05-27T07:32:38.197Z,10.90
2018-05-27T07:35:05.707Z,10.90
2018-05-27T07:37:33.272Z,10.80
2018-05-27T07:40:00.790Z,10.93
2018-05-27T07:42:28.405Z,11.03
2018-05-27T07:44:55.934Z,11.03
2018-05-27T07:47:23.456Z,10.77
2018-05-27T07:49:50.964Z,10.87
2018-05-27T07:52:18.482Z,10.93
2018-05-27T07:54:46.045Z,11.53
2018-05-27T07:57:13.556Z,10.00
2018-05-27T07:59:41.068Z,9.63
2018-05-27T08:02:08.650Z,9.57
2018-05-27T08:04:36.233Z,10.37
2018-05-27T08:07:03.836Z,10.20
2018-05-27T08:09:31.343Z,9.07
2018-05-27T08:11:58.909Z,9.03
2018-05-27T08:14:26.494Z,10.50
2018-05-27T08:16:53.998Z,8.33
2018-05-27T08:19:21.523Z,8.10
2018-05-27T08:21:49.085Z,8.47
2018-05-27T08:24:16.615Z,7.77
2018-05-27T08:26:44.132Z,8.10
2018-05-27T08:29:11.911Z,8.80
2018-05-27T08:31:39.505Z,7.90
2018-05-27T08:34:07.050Z,7.27
2018-05-27T08:36:34.615Z,6.53
2018-05-27T08:39:02.137Z,7.40
2018-05-27T08:41:29.824Z,7.70
2018-05-27T08:43:57.421Z,7.73
2018-05-27T08:46:24.935Z,7.53
2018-05-27T08:48:52.531Z,7.73
2018-05-27T08:51:19.969Z,6.53
2018-05-27T08:53:47.462Z,7.07
2018-05-27T08:56:14.905Z,6.93
2018-05-27T08:58:42.454Z,7.77
2018-05-27T09:01:10.011Z,7.67
2018-05-27T09:03:37.540Z,7.70
2018-05-27T09:06:05.035Z,8.97
2018-05-27T09:08:32.554Z,8.93
2018-05-27T09:11:00.086Z,8.00
2018-05-27T09:13:27.986Z,7.77
2018-05-27T09:15:55.489Z,7.87
2018-05-27T09:18:22.958Z,8.07
2018-05-27T09:20:50.445Z,8.13
2018-05-27T09:23:17.893Z,7.27
2018-05-27T09:25:45.521Z,12.33
2018-05-27T09:28:12.978Z,8.70
2018-05-27T09:30:40.673Z,7.83
2018-05-27T09:33:08.127Z,7.50
2018-05-27T09:35:35.606Z,7.30
2018-05-27T09:38:03.078Z,6.70
2018-05-27T09:40:30.529Z,7.83
2018-05-27T09:42:58.002Z,7.27
2018-05-27T09:45:25.557Z,7.37
2018-05-27T09:47:53.093Z,6.87
2018-05-27T09:50:20.574Z,6.73
2018-05-27T09:52:48.029Z,7.63
2018-05-27T09:55:15.473Z,7.43
2018-05-27T09:57:42.918Z,7.27
2018-05-27T10:00:10.411Z,5.47
2018-05-27T10:02:37.865Z,6.60
2018-05-27T10:05:05.318Z,6.03
2018-05-27T10:07:32.759Z,6.27
2018-05-27T10:10:00.205Z,6.37
2018-05-27T10:12:27.861Z,6.43
2018-05-27T10:14:55.350Z,7.07
2018-05-27T10:17:22.936Z,6.90
2018-05-27T10:19:50.442Z,6.33
2018-05-27T10:22:17.997Z,7.30
2018-05-27T10:24:45.497Z,6.87
2018-05-27T10:27:13.049Z,7.30
2018-05-27T10:29:40.510Z,6.83
2018-05-27T10:32:07.993Z,6.80
2018-05-27T10:34:35.466Z,5.53
2018-05-27T10:37:02.979Z,5.23
2018-05-27T10:39:30.504Z,5.73
2018-05-27T10:41:58.217Z,6.53
2018-05-27T10:44:26.208Z,6.10
2018-05-27T10:46:54.058Z,6.00
2018-05-27T10:49:21.946Z,7.03
2018-05-27T10:51:49.609Z,5.80
2018-05-27T10:54:17.414Z,6.27
2018-05-27T10:56:44.920Z,6.60
2018-05-27T10:59:12.381Z,5.87
2018-05-27T11:01:39.900Z,5.87
2018-05-27T11:04:07.424Z,5.77
2018-05-27T11:06:34.904Z,5.63
2018-05-27T11:09:02.388Z,6.17
2018-05-27T11:11:29.865Z,6.40
2018-05-27T11:13:57.377Z,5.80
2018-05-27T11:16:24.821Z,6.00
2018-05-27T11:18:52.293Z,6.03
2018-05-27T11:21:19.884Z,6.13
2018-05-27T11:23:47.350Z,5.80
2018-05-27T11:26:14.812Z,6.57
2018-05-27T11:28:42.272Z,6.23
2018-05-27T11:31:09.731Z,6.33
2018-05-27T11:33:37.192Z,5.30
2018-05-27T11:36:04.646Z,6.00
2018-05-27T11:38:32.100Z,5.30
2018-05-27T11:40:59.557Z,5.43
2018-05-27T11:43:26.989Z,5.77
2018-05-27T11:45:54.513Z,5.07
2018-05-27T11:48:21.952Z,5.33
2018-05-27T11:50:49.476Z,6.43
2018-05-27T11:53:17.125Z,5.83
2018-05-27T11:55:44.632Z,5.30
2018-05-27T11:58:12.075Z,6.43
2018-05-27T12:00:39.855Z,5.90
2018-05-27T12:03:07.305Z,5.90
2018-05-27T12:05:34.743Z,5.13
2018-05-27T12:08:02.185Z,5.90
2018-05-27T12:10:29.633Z,5.60
2018-05-27T12:12:57.079Z,6.00
2018-05-27T12:15:24.530Z,5.70
2018-05-27T12:17:51.973Z,5.40
2018-05-27T12:20:19.465Z,5.80
2018-05-27T12:22:46.923Z,5.60
2018-05-27T12:25:14.468Z,5.53
2018-05-27T12:27:41.933Z,5.20
2018-05-27T12:30:09.382Z,5.90
2018-05-27T12:32:36.842Z,5.77
2018-05-27T12:35:04.345Z,5.70
2018-05-27T12:37:31.786Z,6.23
2018-05-27T12:39:59.286Z,5.80
2018-05-27T12:42:26.737Z,5.97
2018-05-27T12:44:54.230Z,5.93
2018-05-27T12:47:21.680Z,5.73
2018-05-27T12:49:49.124Z,5.90
2018-05-27T12:52:16.577Z,5.70
2018-05-27T12:54:44.085Z,5.43
2018-05-27T12:57:12.067Z,5.47
2018-05-27T12:59:39.616Z,5.93
2018-05-27T13:02:07.056Z,5.23
2018-05-27T13:04:34.520Z,5.47
2018-05-27T13:07:01.973Z,4.73
2018-05-27T13:09:29.435Z,4.97
2018-05-27T13:11:56.937Z,4.77
2018-05-27T13:14:24.382Z,4.80
2018-05-27T13:16:52.057Z,4.43
2018-05-27T13:19:19.416Z,5.00
2018-05-27T13:21:46.962Z,5.00
2018-05-27T13:24:14.451Z,4.53
2018-05-27T13:26:41.917Z,4.43
2018-05-27T13:29:09.466Z,4.70
2018-05-27T13:31:36.933Z,5.83
2018-05-27T13:34:04.468Z,5.33
2018-05-27T13:36:31.917Z,3.87
2018-05-27T13:38:59.414Z,4.30
2018-05-27T13:41:27.823Z,4.80
2018-05-27T13:43:55.261Z,4.40
2018-05-27T13:46:22.932Z,4.70
2018-05-27T13:48:50.783Z,5.00
2018-05-27T13:51:18.438Z,5.33
2018-05-27T13:53:46.290Z,4.27
2018-05-27T13:56:13.940Z,4.90
2018-05-27T13:58:41.640Z,4.47
2018-05-27T14:01:09.301Z,3.93
2018-05-27T14:03:36.948Z,4.30
2018-05-27T14:06:04.639Z,4.90
2018-05-27T14:08:32.180Z,5.17
2018-05-27T14:11:00.056Z,3.93
2018-05-27T14:13:27.766Z,4.73
2018-05-27T14:15:55.610Z,3.83
2018-05-27T14:18:23.457Z,3.40
2018-05-27T14:20:51.114Z,3.40
2018-05-27T14:23:18.765Z,3.37
2018-05-27T14:25:46.617Z,3.13
2018-05-27T14:28:14.501Z,3.43
2018-05-27T14:30:42.014Z,3.47
2018-05-27T14:33:09.981Z,3.67
2018-05-27T14:35:37.817Z,3.60
2018-05-27T14:38:05.268Z,4.27
2018-05-27T14:40:32.717Z,4.23
2018-05-27T14:43:00.539Z,4.30
2018-05-27T14:45:28.189Z,4.17
2018-05-27T14:47:55.636Z,4.23
2018-05-27T14:50:23.299Z,4.30
2018-05-27T14:52:50.787Z,4.20
2018-05-27T14:55:18.259Z,4.13
2018-05-27T14:57:45.702Z,4.17
2018-05-27T15:00:13.230Z,4.77
2018-05-27T15:02:40.978Z,3.83
2018-05-27T15:05:09.218Z,3.60
2018-05-27T15:07:37.465Z,3.27
2018-05-27T15:10:04.981Z,3.23
2018-05-27T15:12:32.421Z,3.07
2018-05-27T15:15:00.229Z,2.80
2018-05-27T15:17:27.933Z,3.57
2018-05-27T15:19:55.424Z,3.30
2018-05-27T15:22:23.188Z,3.20
2018-05-27T15:24:50.845Z,3.40
2018-05-27T15:27:18.305Z,2.77
2018-05-27T15:29:45.746Z,3.60
2018-05-27T15:32:13.473Z,3.50
2018-05-27T15:34:41.259Z,3.37
2018-05-27T15:37:09.499Z,2.40
2018-05-27T15:39:36.968Z,3.43
2018-05-27T15:42:04.466Z,3.00
2018-05-27T15:44:32.070Z,2.90
2018-05-27T15:46:59.586Z,2.77
2018-05-27T15:49:27.178Z,2.73
2018-05-27T15:51:55.031Z,2.90
2018-05-27T15:54:22.881Z,2.50
2018-05-27T15:56:50.387Z,3.10
2018-05-27T15:59:17.875Z,2.90
2018-05-27T16:01:45.492Z,2.53
2018-05-27T16:04:13.149Z,2.80
2018-05-27T16:06:40.608Z,2.80
2018-05-27T16:09:08.160Z,2.90
2018-05-27T16:11:35.910Z,2.70
2018-05-27T16:14:03.721Z,2.47
2018-05-27T16:16:31.422Z,2.87
2018-05-27T16:18:59.022Z,3.03
2018-05-27T16:21:26.522Z,2.43
2018-05-27T16:23:54.189Z,3.50
2018-05-27T16:26:21.652Z,2.80
2018-05-27T16:28:49.440Z,2.60
2018-05-27T16:31:17.291Z,2.50
2018-05-27T16:33:44.746Z,2.63
2018-05-27T16:36:12.448Z,2.67
2018-05-27T16:38:40.251Z,3.00
2018-05-27T16:41:08.297Z,2.63
2018-05-27T16:43:35.757Z,2.57
2018-05-27T16:46:03.233Z,3.07
2018-05-27T16:48:30.913Z,2.57
2018-05-27T16:50:58.715Z,2.47
2018-05-27T16:53:26.421Z,2.40
2018-05-27T16:55:54.023Z,2.43
2018-05-27T16:58:21.876Z,3.43
2018-05-27T17:00:49.720Z,2.80
2018-05-27T17:03:17.176Z,3.53
2018-05-27T17:05:44.609Z,3.00
2018-05-27T17:08:12.045Z,2.53
2018-05-27T17:10:39.506Z,2.43
2018-05-27T17:13:07.281Z,2.27
2018-05-27T17:15:34.741Z,2.70
2018-05-27T17:18:02.210Z,2.93
2018-05-27T17:20:29.652Z,2.33
2018-05-27T17:22:57.227Z,2.63
2018-05-27T17:25:24.882Z,2.37
2018-05-27T17:27:52.764Z,2.80
2018-05-27T17:30:20.219Z,2.30
2018-05-27T17:32:47.893Z,1.80
2018-05-27T17:35:15.495Z,2.27
2018-05-27T17:37:43.197Z,2.10
2018-05-27T17:40:10.851Z,1.73
2018-05-27T17:42:38.454Z,1.87
2018-05-27T17:45:06.157Z,2.10
2018-05-27T17:47:33.814Z,1.70
2018-05-27T17:50:01.358Z,1.80
2018-05-27T17:52:28.802Z,2.07
2018-05-27T17:54:56.720Z,1.97
2018-05-27T17:57:24.971Z,2.20
2018-05-27T17:59:52.419Z,1.97
2018-05-27T18:02:20.077Z,2.17
2018-05-27T18:04:47.777Z,2.87
2018-05-27T18:07:15.580Z,3.07
2018-05-27T18:09:43.233Z,2.60
2018-05-27T18:12:11.101Z,2.53
2018-05-27T18:14:38.595Z,2.50
2018-05-27T18:17:06.640Z,3.27
2018-05-27T18:19:34.289Z,2.30
2018-05-27T18:22:01.770Z,2.20
2018-05-27T18:24:29.210Z,2.07
2018-05-27T18:26:56.701Z,2.40
2018-05-27T18:29:24.186Z,2.20
2018-05-27T18:31:51.670Z,2.03
2018-05-27T18:34:19.113Z,2.53
2018-05-27T18:36:46.576Z,2.87
2018-05-27T18:39:14.030Z,2.30
2018-05-27T18:41:41.497Z,2.80
2018-05-27T18:44:08.955Z,2.30
2018-05-27T18:46:36.522Z,3.10
2018-05-27T18:49:04.369Z,2.40
2018-05-27T18:51:32.164Z,2.47
2018-05-27T18:53:59.634Z,2.50
2018-05-27T18:56:27.096Z,2.43
2018-05-27T18:58:54.544Z,2.77
2018-05-27T19:01:22.048Z,2.90
2018-05-27T19:03:49.543Z,2.87
2018-05-27T19:06:16.983Z,2.30
2018-05-27T19:08:44.434Z,2.50
2018-05-27T19:11:11.906Z,2.20
2018-05-27T19:13:39.563Z,2.10
2018-05-27T19:16:07.069Z,2.70
2018-05-27T19:18:34.516Z,2.30
2018-05-27T19:21:02.053Z,2.63
2018-05-27T19:23:29.519Z,3.00
2018-05-27T19:25:56.957Z,2.70
2018-05-27T19:28:24.405Z,2.83
2018-05-27T19:30:51.899Z,2.47
2018-05-27T19:33:19.406Z,3.17
2018-05-27T19:35:46.857Z,2.53
2018-05-27T19:38:14.323Z,2.70
2018-05-27T19:40:41.900Z,2.67
2018-05-27T19:43:09.382Z,2.70
2018-05-27T19:45:36.822Z,2.33
2018-05-27T19:48:04.266Z,3.50
2018-05-27T19:50:31.782Z,2.90
2018-05-27T19:52:59.272Z,2.13
2018-05-27T19:55:26.770Z,2.37
2018-05-27T19:57:54.221Z,2.27
2018-05-27T20:00:21.665Z,2.33
2018-05-27T20:02:49.109Z,3.20
2018-05-27T20:05:16.555Z,2.43
2018-05-27T20:07:43.996Z,2.00
2018-05-27T20:10:11.470Z,1.97
2018-05-27T20:12:38.920Z,2.00
2018-05-27T20:15:06.398Z,2.40
2018-05-27T20:17:33.857Z,2.33
2018-05-27T20:20:01.321Z,2.30
2018-05-27T20:22:28.761Z,2.10
2018-05-27T20:24:56.252Z,2.27
2018-05-27T20:27:23.721Z,1.90
2018-05-27T20:29:51.160Z,2.10
2018-05-27T20:32:18.605Z,2.60
2018-05-27T20:34:46.042Z,2.27
2018-05-27T20:37:13.485Z,2.93
2018-05-27T20:39:40.982Z,3.10
2018-05-27T20:42:08.508Z,2.43
2018-05-27T20:44:35.949Z,2.37
2018-05-27T20:47:03.431Z,2.20
2018-05-27T20:49:30.877Z,2.13
2018-05-27T20:51:58.339Z,2.30
2018-05-27T20:54:25.799Z,2.50
2018-05-27T20:56:53.882Z,3.00
2018-05-27T20:59:21.339Z,2.63
2018-05-27T21:01:48.840Z,3.30
2018-05-27T21:04:16.342Z,2.03
2018-05-27T21:06:43.783Z,2.20
2018-05-27T21:09:11.222Z,2.90
2018-05-27T21:11:38.681Z,2.80
2018-05-27T21:14:06.117Z,3.10
2018-05-27T21:16:33.565Z,2.70
2018-05-27T21:19:01.029Z,2.60
2018-05-27T21:21:28.465Z,3.17
2018-05-27T21:23:55.903Z,2.90
2018-05-27T21:26:23.348Z,2.97
2018-05-27T21:28:51.416Z,3.20
2018-05-27T21:31:18.874Z,2.77
2018-05-27T21:33:46.318Z,2.57
2018-05-27T21:36:13.761Z,2.90
2018-05-27T21:38:41.881Z,2.73
2018-05-27T21:41:09.318Z,3.00
2018-05-27T21:43:36.829Z,2.70
2018-05-27T21:46:04.370Z,2.60
2018-05-27T21:48:32.010Z,2.70
2018-05-27T21:50:59.582Z,3.57
2018-05-27T21:53:27.025Z,2.67
2018-05-27T21:55:54.476Z,3.13
2018-05-27T21:58:21.931Z,3.33
2018-05-27T22:00:49.474Z,2.97
2018-05-27T22:03:16.921Z,2.80
2018-05-27T22:05:44.365Z,3.30
2018-05-27T22:08:11.827Z,3.13
2018-05-27T22:10:39.279Z,3.00
2018-05-27T22:13:06.734Z,3.27
2018-05-27T22:15:34.253Z,3.20
2018-05-27T22:18:01.723Z,3.27
2018-05-27T22:20:29.263Z,3.27
2018-05-27T22:22:56.714Z,3.47
2018-05-27T22:25:24.173Z,2.83
2018-05-27T22:27:51.624Z,3.03
2018-05-27T22:30:19.094Z,3.10
2018-05-27T22:32:47.071Z,2.70
2018-05-27T22:35:14.526Z,2.60
2018-05-27T22:37:41.971Z,2.77
2018-05-27T22:40:09.406Z,2.70
2018-05-27T22:42:36.842Z,2.70
2018-05-27T22:45:04.967Z,2.83
2018-05-27T22:47:32.439Z,2.67
2018-05-27T22:49:59.893Z,2.77
2018-05-27T22:52:27.344Z,2.53
2018-05-27T22:54:54.858Z,2.73
2018-05-27T22:57:22.306Z,3.00
2018-05-27T22:59:49.797Z,2.47
2018-05-27T23:02:17.257Z,2.67
2018-05-27T23:04:44.813Z,2.70
2018-05-27T23:07:12.309Z,2.97
2018-05-27T23:09:39.804Z,2.80
2018-05-27T23:12:07.281Z,2.73
2018-05-27T23:14:34.803Z,2.57
2018-05-27T23:17:02.293Z,2.63
2018-05-27T23:19:29.786Z,3.27
2018-05-27T23:21:57.277Z,3.00
2018-05-27T23:24:24.793Z,3.00
2018-05-27T23:26:52.305Z,2.90
2018-05-27T23:29:19.806Z,2.90
2018-05-27T23:31:47.297Z,2.23
2018-05-27T23:34:14.779Z,2.47
2018-05-27T23:36:42.339Z,2.87
2018-05-27T23:39:09.821Z,2.57
2018-05-27T23:41:37.310Z,2.80
2018-05-27T23:44:04.814Z,2.70
2018-05-27T23:46:32.376Z,2.43
2018-05-27T23:48:59.953Z,2.70
2018-05-27T23:51:27.473Z,2.20
2018-05-27T23:53:54.979Z,2.53
2018-05-27T23:56:22.495Z,2.83
2018-05-27T23:58:49.994Z,2.20
